Terminal Aerodrome Forecast
Issued by NWS

Home | Current Version | Previous Version | Text Only | Print | Product List | Glossary On
Versions: 1 2 3 4 5 6 7 8 9 10 11 12 13 14 15
671
FTUS44 KLIX 180540 AAA
TAFGPT
TAF AMD
KGPT 180540Z 1806/1906 18005KT 6SM BR FEW003 SCT250
     FM181100 19006KT 4SM BR BKN003 BKN070
     FM181400 20009KT P6SM SCT012 BKN025
     FM182300 22011KT P6SM SCT015 BKN050 PROB30 1823/1902 4SM -SHRA
      BKN015
     FM190200 25011KT P6SM SCT010 BKN025 PROB30 1902/1904 4SM -SHRA
      BKN010
     FM190400 30013G21KT P6SM BKN025=

USA.gov is the U.S. government's official web portal to all federal, state and local government web resources and services.